sensor_id;sensor_type;location;lat;lon;timestamp;pressure;altitude;pressure_sealevel;temperature;humidity
71476;BME280;59286;59.274;17.974;2022-09-09T00:07:04;101963.22;;;10.34;70.62
71476;BME280;59286;59.274;17.974;2022-09-09T00:09:39;101946.72;;;10.34;69.43
71476;BME280;59286;59.274;17.974;2022-09-09T00:20:01;101954.59;;;10.49;69.69
71476;BME280;59286;59.274;17.974;2022-09-09T00:22:29;101948.06;;;10.51;69.04
71476;BME280;59286;59.274;17.974;2022-09-09T00:25:11;101945.97;;;10.53;68.38
71476;BME280;59286;59.274;17.974;2022-09-09T00:27:44;101940.19;;;10.51;68.04
71476;BME280;59286;59.274;17.974;2022-09-09T00:30:22;101928.66;;;10.52;67.67
71476;BME280;59286;59.274;17.974;2022-09-09T00:32:54;101938.38;;;10.62;67.98
71476;BME280;59286;59.274;17.974;2022-09-09T00:35:50;101930.50;;;10.57;67.03
71476;BME280;59286;59.274;17.974;2022-09-09T00:38:20;101927.09;;;10.61;66.63
71476;BME280;59286;59.274;17.974;2022-09-09T00:41:09;101947.03;;;10.72;66.16
71476;BME280;59286;59.274;17.974;2022-09-09T00:43:39;101940.22;;;10.71;65.10
71476;BME280;59286;59.274;17.974;2022-09-09T00:48:49;101925.78;;;10.79;65.98
71476;BME280;59286;59.274;17.974;2022-09-09T01:02:53;101910.28;;;11.08;64.81
71476;BME280;59286;59.274;17.974;2022-09-09T01:08:21;101912.88;;;11.18;64.50
71476;BME280;59286;59.274;17.974;2022-09-09T01:10:53;101902.66;;;11.21;64.10
71476;BME280;59286;59.274;17.974;2022-09-09T01:13:28;101906.56;;;11.29;63.80
71476;BME280;59286;59.274;17.974;2022-09-09T01:16:04;101897.66;;;11.30;64.62
71476;BME280;59286;59.274;17.974;2022-09-09T01:18:37;101898.69;;;11.39;64.24
71476;BME280;59286;59.274;17.974;2022-09-09T01:24:17;101904.69;;;11.44;64.27
71476;BME280;59286;59.274;17.974;2022-09-09T01:26:46;101893.94;;;11.41;65.01
71476;BME280;59286;59.274;17.974;2022-09-09T01:29:14;101890.00;;;11.38;64.45
71476;BME280;59286;59.274;17.974;2022-09-09T01:34:46;101894.69;;;11.51;64.42
71476;BME280;59286;59.274;17.974;2022-09-09T01:37:12;101896.53;;;11.51;65.21
71476;BME280;59286;59.274;17.974;2022-09-09T01:39:40;101882.09;;;11.43;64.97
71476;BME280;59286;59.274;17.974;2022-09-09T01:42:09;101899.91;;;11.56;64.86
71476;BME280;59286;59.274;17.974;2022-09-09T01:44:36;101900.97;;;11.55;65.09
71476;BME280;59286;59.274;17.974;2022-09-09T01:47:03;101875.81;;;11.44;65.21
71476;BME280;59286;59.274;17.974;2022-09-09T01:49:29;101898.34;;;11.60;65.34
71476;BME280;59286;59.274;17.974;2022-09-09T01:51:56;101888.41;;;11.47;65.37
71476;BME280;59286;59.274;17.974;2022-09-09T01:54:24;101875.25;;;11.52;65.90
71476;BME280;59286;59.274;17.974;2022-09-09T01:57:06;101889.94;;;11.63;65.69
71476;BME280;59286;59.274;17.974;2022-09-09T01:59:57;101888.88;;;11.64;65.56
71476;BME280;59286;59.274;17.974;2022-09-09T02:05:14;101870.47;;;11.69;66.04
71476;BME280;59286;59.274;17.974;2022-09-09T02:07:50;101865.47;;;11.73;66.26
71476;BME280;59286;59.274;17.974;2022-09-09T02:10:20;101870.47;;;11.75;66.27
71476;BME280;59286;59.274;17.974;2022-09-09T02:12:50;101866.50;;;11.77;65.85
71476;BME280;59286;59.274;17.974;2022-09-09T02:15:30;101846.06;;;11.64;66.29
71476;BME280;59286;59.274;17.974;2022-09-09T02:17:58;101869.66;;;11.79;66.28
71476;BME280;59286;59.274;17.974;2022-09-09T02:20:27;101870.44;;;11.80;66.14
71476;BME280;59286;59.274;17.974;2022-09-09T02:22:55;101834.50;;;11.70;66.25
71476;BME280;59286;59.274;17.974;2022-09-09T02:25:24;101866.22;;;11.84;66.46
71476;BME280;59286;59.274;17.974;2022-09-09T02:27:51;101844.22;;;11.75;66.18
71476;BME280;59286;59.274;17.974;2022-09-09T02:30:18;101843.91;;;11.81;66.42
71476;BME280;59286;59.274;17.974;2022-09-09T02:32:45;101837.41;;;11.68;66.81
71476;BME280;59286;59.274;17.974;2022-09-09T02:35:14;101855.41;;;11.90;66.88
71476;BME280;59286;59.274;17.974;2022-09-09T02:37:42;101831.06;;;11.75;66.96
71476;BME280;59286;59.274;17.974;2022-09-09T02:40:12;101859.34;;;11.93;67.24
71476;BME280;59286;59.274;17.974;2022-09-09T02:42:41;101840.00;;;11.74;67.63
71476;BME280;59286;59.274;17.974;2022-09-09T02:45:09;101813.25;;;11.66;67.91
71476;BME280;59286;59.274;17.974;2022-09-09T02:47:38;101824.19;;;11.79;68.01
71476;BME280;59286;59.274;17.974;2022-09-09T02:50:15;101850.13;;;11.95;68.07
71476;BME280;59286;59.274;17.974;2022-09-09T02:52:54;101853.50;;;12.01;68.37
71476;BME280;59286;59.274;17.974;2022-09-09T02:55:35;101850.88;;;12.01;68.35
71476;BME280;59286;59.274;17.974;2022-09-09T02:58:04;101845.63;;;12.01;68.71
71476;BME280;59286;59.274;17.974;2022-09-09T03:00:32;101841.66;;;12.03;68.75
71476;BME280;59286;59.274;17.974;2022-09-09T03:02:58;101843.75;;;12.06;68.79
71476;BME280;59286;59.274;17.974;2022-09-09T03:05:24;101837.75;;;12.01;68.88
71476;BME280;59286;59.274;17.974;2022-09-09T03:07:50;101844.00;;;12.05;69.15
71476;BME280;59286;59.274;17.974;2022-09-09T03:10:16;101816.25;;;11.89;69.08
71476;BME280;59286;59.274;17.974;2022-09-09T03:12:42;101843.75;;;12.06;69.17
71476;BME280;59286;59.274;17.974;2022-09-09T03:15:08;101832.75;;;11.99;69.64
71476;BME280;59286;59.274;17.974;2022-09-09T03:17:35;101807.34;;;11.90;69.93
71476;BME280;59286;59.274;17.974;2022-09-09T03:20:02;101808.66;;;11.87;69.67
71476;BME280;59286;59.274;17.974;2022-09-09T03:22:27;101827.19;;;12.06;69.85
71476;BME280;59286;59.274;17.974;2022-09-09T03:24:53;101810.44;;;11.97;69.65
71476;BME280;59286;59.274;17.974;2022-09-09T03:27:18;101819.31;;;12.06;69.89
71476;BME280;59286;59.274;17.974;2022-09-09T03:29:45;101792.91;;;11.87;69.97
71476;BME280;59286;59.274;17.974;2022-09-09T03:32:11;101822.50;;;12.03;70.21
71476;BME280;59286;59.274;17.974;2022-09-09T03:34:37;101821.19;;;12.00;70.12
71476;BME280;59286;59.274;17.974;2022-09-09T03:37:06;101828.22;;;12.10;70.41
71476;BME280;59286;59.274;17.974;2022-09-09T03:39:31;101821.94;;;12.06;70.25
71476;BME280;59286;59.274;17.974;2022-09-09T03:41:57;101807.78;;;12.02;70.12
71476;BME280;59286;59.274;17.974;2022-09-09T03:44:22;101795.19;;;11.94;70.13
71476;BME280;59286;59.274;17.974;2022-09-09T03:46:47;101810.63;;;12.05;70.27
71476;BME280;59286;59.274;17.974;2022-09-09T03:49:13;101806.97;;;12.06;70.09
71476;BME280;59286;59.274;17.974;2022-09-09T03:51:38;101809.53;;;12.11;69.88
71476;BME280;59286;59.274;17.974;2022-09-09T03:54:07;101811.38;;;12.16;69.72
71476;BME280;59286;59.274;17.974;2022-09-09T03:56:36;101811.31;;;12.21;69.44
71476;BME280;59286;59.274;17.974;2022-09-09T03:59:02;101809.47;;;12.21;69.69
71476;BME280;59286;59.274;17.974;2022-09-09T04:01:27;101804.47;;;12.20;69.45
71476;BME280;59286;59.274;17.974;2022-09-09T04:03:53;101808.59;;;12.31;69.23
71476;BME280;59286;59.274;17.974;2022-09-09T04:06:19;101810.41;;;12.35;69.28
71476;BME280;59286;59.274;17.974;2022-09-09T04:08:46;101760.41;;;12.07;69.11
71476;BME280;59286;59.274;17.974;2022-09-09T04:11:14;101800.44;;;12.32;68.77
71476;BME280;59286;59.274;17.974;2022-09-09T04:13:40;101770.81;;;12.22;68.86
71476;BME280;59286;59.274;17.974;2022-09-09T04:16:07;101809.25;;;12.46;68.36
71476;BME280;59286;59.274;17.974;2022-09-09T04:18:34;101814.97;;;12.53;68.58
71476;BME280;59286;59.274;17.974;2022-09-09T04:21:00;101816.00;;;12.57;68.31
71476;BME280;59286;59.274;17.974;2022-09-09T04:23:28;101816.50;;;12.59;68.03
71476;BME280;59286;59.274;17.974;2022-09-09T04:25:57;101827.53;;;12.61;68.05
71476;BME280;59286;59.274;17.974;2022-09-09T04:28:25;101810.00;;;12.52;67.87
71476;BME280;59286;59.274;17.974;2022-09-09T04:30:53;101782.22;;;12.41;67.99
71476;BME280;59286;59.274;17.974;2022-09-09T04:33:19;101810.69;;;12.62;67.75
71476;BME280;59286;59.274;17.974;2022-09-09T04:35:46;101812.47;;;12.67;67.25
71476;BME280;59286;59.274;17.974;2022-09-09T04:38:12;101814.09;;;12.63;66.72
71476;BME280;59286;59.274;17.974;2022-09-09T04:40:37;101812.47;;;12.67;66.38
71476;BME280;59286;59.274;17.974;2022-09-09T04:43:08;101787.84;;;12.58;66.53
71476;BME280;59286;59.274;17.974;2022-09-09T04:45:33;101774.78;;;12.48;65.47
71476;BME280;59286;59.274;17.974;2022-09-09T04:47:58;101803.44;;;12.78;65.72
71476;BME280;59286;59.274;17.974;2022-09-09T04:50:24;101770.47;;;12.57;65.50
71476;BME280;59286;59.274;17.974;2022-09-09T04:52:50;101807.88;;;12.83;64.72
71476;BME280;59286;59.274;17.974;2022-09-09T04:55:16;101791.88;;;12.74;65.07
71476;BME280;59286;59.274;17.974;2022-09-09T04:57:41;101820.69;;;12.89;64.66
71476;BME280;59286;59.274;17.974;2022-09-09T05:00:07;101815.63;;;12.93;63.49
71476;BME280;59286;59.274;17.974;2022-09-09T05:02:37;101788.44;;;12.79;62.84
71476;BME280;59286;59.274;17.974;2022-09-09T05:05:03;101792.28;;;12.86;62.35
71476;BME280;59286;59.274;17.974;2022-09-09T05:07:28;101813.16;;;13.06;63.14
71476;BME280;59286;59.274;17.974;2022-09-09T05:09:56;101815.78;;;13.06;62.19
71476;BME280;59286;59.274;17.974;2022-09-09T05:12:22;101808.19;;;13.05;61.57
71476;BME280;59286;59.274;17.974;2022-09-09T05:14:49;101808.47;;;13.03;61.52
71476;BME280;59286;59.274;17.974;2022-09-09T05:17:15;101812.06;;;13.07;60.89
71476;BME280;59286;59.274;17.974;2022-09-09T05:19:41;101807.81;;;13.11;60.24
71476;BME280;59286;59.274;17.974;2022-09-09T05:22:07;101799.88;;;13.16;59.53
71476;BME280;59286;59.274;17.974;2022-09-09T05:24:32;101798.69;;;13.27;59.60
71476;BME280;59286;59.274;17.974;2022-09-09T05:26:58;101819.06;;;13.40;57.96
71476;BME280;59286;59.274;17.974;2022-09-09T05:29:25;101823.34;;;13.55;57.75
71476;BME280;59286;59.274;17.974;2022-09-09T05:31:51;101798.78;;;13.41;57.56
71476;BME280;59286;59.274;17.974;2022-09-09T05:34:17;101815.03;;;13.67;57.38
71476;BME280;59286;59.274;17.974;2022-09-09T05:36:42;101831.28;;;13.74;58.49
71476;BME280;59286;59.274;17.974;2022-09-09T05:39:07;101828.25;;;13.61;56.69
71476;BME280;59286;59.274;17.974;2022-09-09T05:41:33;101819.22;;;13.49;56.92
71476;BME280;59286;59.274;17.974;2022-09-09T05:43:59;101788.94;;;13.28;56.70
71476;BME280;59286;59.274;17.974;2022-09-09T05:46:26;101827.13;;;13.49;56.83
71476;BME280;59286;59.274;17.974;2022-09-09T05:48:53;101814.13;;;13.34;57.27
71476;BME280;59286;59.274;17.974;2022-09-09T05:51:24;101798.91;;;13.31;56.57
71476;BME280;59286;59.274;17.974;2022-09-09T05:53:51;101835.03;;;13.49;56.11
71476;BME280;59286;59.274;17.974;2022-09-09T05:56:19;101830.53;;;13.49;55.50
71476;BME280;59286;59.274;17.974;2022-09-09T05:58:45;101832.09;;;13.50;54.81
71476;BME280;59286;59.274;17.974;2022-09-09T06:01:16;101811.19;;;13.40;55.57
71476;BME280;59286;59.274;17.974;2022-09-09T06:03:43;101835.44;;;13.56;55.24
71476;BME280;59286;59.274;17.974;2022-09-09T06:06:15;101810.59;;;13.43;55.03
71476;BME280;59286;59.274;17.974;2022-09-09T06:08:42;101836.16;;;13.61;56.33
71476;BME280;59286;59.274;17.974;2022-09-09T06:11:15;101834.31;;;13.62;56.19
71476;BME280;59286;59.274;17.974;2022-09-09T06:13:48;101838.19;;;13.70;55.18
71476;BME280;59286;59.274;17.974;2022-09-09T06:16:17;101826.63;;;13.66;55.41
71476;BME280;59286;59.274;17.974;2022-09-09T06:18:43;101812.66;;;13.65;54.99
71476;BME280;59286;59.274;17.974;2022-09-09T06:21:20;101831.56;;;13.91;53.87
71476;BME280;59286;59.274;17.974;2022-09-09T06:23:46;101832.78;;;13.98;53.39
71476;BME280;59286;59.274;17.974;2022-09-09T06:26:21;101820.41;;;14.12;52.00
71476;BME280;59286;59.274;17.974;2022-09-09T06:28:49;101834.00;;;14.38;52.42
71476;BME280;59286;59.274;17.974;2022-09-09T06:31:16;101833.06;;;14.47;51.50
71476;BME280;59286;59.274;17.974;2022-09-09T06:33:42;101814.78;;;14.51;50.75
71476;BME280;59286;59.274;17.974;2022-09-09T06:36:14;101821.69;;;14.66;49.99
71476;BME280;59286;59.274;17.974;2022-09-09T06:38:41;101827.28;;;14.91;50.73
71476;BME280;59286;59.274;17.974;2022-09-09T06:41:08;101827.75;;;15.20;50.43
71476;BME280;59286;59.274;17.974;2022-09-09T06:43:34;101824.06;;;15.21;49.99
71476;BME280;59286;59.274;17.974;2022-09-09T06:46:12;101821.31;;;15.26;49.97
71476;BME280;59286;59.274;17.974;2022-09-09T06:48:42;101799.28;;;15.44;49.45
71476;BME280;59286;59.274;17.974;2022-09-09T06:51:13;101829.69;;;15.56;50.31
71476;BME280;59286;59.274;17.974;2022-09-09T06:53:41;101841.47;;;15.22;49.44
71476;BME280;59286;59.274;17.974;2022-09-09T06:58:36;101817.59;;;14.73;51.76
71476;BME280;59286;59.274;17.974;2022-09-09T07:01:04;101827.50;;;14.49;51.52
71476;BME280;59286;59.274;17.974;2022-09-09T07:03:29;101823.84;;;14.64;51.64
71476;BME280;59286;59.274;17.974;2022-09-09T07:05:55;101811.59;;;14.54;52.23
71476;BME280;59286;59.274;17.974;2022-09-09T07:08:29;101820.47;;;14.44;51.37
71476;BME280;59286;59.274;17.974;2022-09-09T07:11:07;101846.47;;;14.51;52.08
71476;BME280;59286;59.274;17.974;2022-09-09T07:13:34;101821.63;;;14.20;52.38
71476;BME280;59286;59.274;17.974;2022-09-09T07:16:07;101849.13;;;14.32;52.19
71476;BME280;59286;59.274;17.974;2022-09-09T07:18:33;101798.72;;;14.02;52.25
71476;BME280;59286;59.274;17.974;2022-09-09T07:21:00;101818.16;;;14.06;52.80
71476;BME280;59286;59.274;17.974;2022-09-09T07:23:27;101812.16;;;14.19;53.18
71476;BME280;59286;59.274;17.974;2022-09-09T07:25:53;101836.84;;;14.23;52.07
71476;BME280;59286;59.274;17.974;2022-09-09T07:28:21;101835.31;;;14.22;51.86
71476;BME280;59286;59.274;17.974;2022-09-09T07:30:59;101858.44;;;14.30;51.52
71476;BME280;59286;59.274;17.974;2022-09-09T07:33:25;101824.00;;;14.03;51.83
71476;BME280;59286;59.274;17.974;2022-09-09T07:35:52;101862.28;;;14.37;52.15
71476;BME280;59286;59.274;17.974;2022-09-09T07:38:19;101846.22;;;14.34;52.51
71476;BME280;59286;59.274;17.974;2022-09-09T07:40:45;101821.13;;;14.18;51.85
71476;BME280;59286;59.274;17.974;2022-09-09T07:43:11;101830.97;;;14.31;51.87
71476;BME280;59286;59.274;17.974;2022-09-09T07:45:37;101856.84;;;14.61;50.42
71476;BME280;59286;59.274;17.974;2022-09-09T07:48:03;101860.09;;;14.72;50.42
71476;BME280;59286;59.274;17.974;2022-09-09T07:50:29;101847.09;;;14.75;50.90
71476;BME280;59286;59.274;17.974;2022-09-09T07:52:54;101812.38;;;14.68;49.47
71476;BME280;59286;59.274;17.974;2022-09-09T07:55:21;101804.84;;;14.75;49.87
71476;BME280;59286;59.274;17.974;2022-09-09T07:57:46;101839.66;;;14.77;49.53
71476;BME280;59286;59.274;17.974;2022-09-09T08:00:12;101834.97;;;14.74;50.09
71476;BME280;59286;59.274;17.974;2022-09-09T08:02:40;101849.28;;;15.27;49.27
71476;BME280;59286;59.274;17.974;2022-09-09T08:05:05;101847.69;;;15.67;47.41
71476;BME280;59286;59.274;17.974;2022-09-09T08:07:31;101840.88;;;15.66;45.55
71476;BME280;59286;59.274;17.974;2022-09-09T08:09:56;101854.09;;;15.52;45.96
71476;BME280;59286;59.274;17.974;2022-09-09T08:12:22;101854.47;;;15.60;47.03
71476;BME280;59286;59.274;17.974;2022-09-09T08:14:48;101865.69;;;15.79;46.15
71476;BME280;59286;59.274;17.974;2022-09-09T08:17:14;101863.56;;;15.67;44.64
71476;BME280;59286;59.274;17.974;2022-09-09T08:19:39;101833.03;;;15.20;45.95
71476;BME280;59286;59.274;17.974;2022-09-09T08:22:05;101843.59;;;15.07;45.55
71476;BME280;59286;59.274;17.974;2022-09-09T08:24:31;101835.22;;;14.91;46.08
71476;BME280;59286;59.274;17.974;2022-09-09T08:26:56;101876.09;;;15.21;47.26
71476;BME280;59286;59.274;17.974;2022-09-09T08:29:22;101853.88;;;14.95;47.23
71476;BME280;59286;59.274;17.974;2022-09-09T08:31:53;101875.22;;;15.39;47.78
71476;BME280;59286;59.274;17.974;2022-09-09T08:34:20;101863.38;;;15.36;46.77
71476;BME280;59286;59.274;17.974;2022-09-09T08:36:47;101841.94;;;15.11;46.55
71476;BME280;59286;59.274;17.974;2022-09-09T08:39:15;101880.03;;;15.23;46.55
71476;BME280;59286;59.274;17.974;2022-09-09T08:52:49;101879.31;;;15.31;49.38
71476;BME280;59286;59.274;17.974;2022-09-09T08:57:53;101861.13;;;15.57;49.26
71476;BME280;59286;59.274;17.974;2022-09-09T09:06:06;101876.09;;;16.33;46.38
71476;BME280;59286;59.274;17.974;2022-09-09T09:08:51;101847.81;;;15.98;48.08
71476;BME280;59286;59.274;17.974;2022-09-09T09:11:18;101883.28;;;15.83;47.93
71476;BME280;59286;59.274;17.974;2022-09-09T09:13:54;101861.91;;;15.58;49.00
71476;BME280;59286;59.274;17.974;2022-09-09T09:16:34;101837.16;;;15.26;50.15
71476;BME280;59286;59.274;17.974;2022-09-09T09:19:04;101857.88;;;15.33;49.45
71476;BME280;59286;59.274;17.974;2022-09-09T09:27:14;101836.28;;;15.04;48.70
71476;BME280;59286;59.274;17.974;2022-09-09T09:29:42;101862.22;;;15.15;48.94
71476;BME280;59286;59.274;17.974;2022-09-09T09:32:16;101853.47;;;15.01;49.84
71476;BME280;59286;59.274;17.974;2022-09-09T09:34:51;101855.06;;;15.29;48.18
71476;BME280;59286;59.274;17.974;2022-09-09T09:37:27;101836.38;;;15.39;47.10
71476;BME280;59286;59.274;17.974;2022-09-09T09:39:54;101871.13;;;15.60;47.31
71476;BME280;59286;59.274;17.974;2022-09-09T09:42:20;101871.91;;;15.47;48.31
71476;BME280;59286;59.274;17.974;2022-09-09T09:44:46;101852.41;;;15.29;48.07
71476;BME280;59286;59.274;17.974;2022-09-09T09:47:36;101828.56;;;15.07;49.30
71476;BME280;59286;59.274;17.974;2022-09-09T09:50:29;101822.69;;;15.10;48.91
71476;BME280;59286;59.274;17.974;2022-09-09T09:53:03;101844.97;;;15.31;49.32
71476;BME280;59286;59.274;17.974;2022-09-09T09:55:33;101817.78;;;15.04;49.48
71476;BME280;59286;59.274;17.974;2022-09-09T09:58:05;101850.06;;;15.28;50.18
71476;BME280;59286;59.274;17.974;2022-09-09T10:00:32;101840.88;;;15.52;49.76
71476;BME280;59286;59.274;17.974;2022-09-09T10:03:00;101797.59;;;15.62;50.59
71476;BME280;59286;59.274;17.974;2022-09-09T10:05:29;101826.72;;;15.71;49.47
71476;BME280;59286;59.274;17.974;2022-09-09T10:08:15;101824.94;;;15.80;49.32
71476;BME280;59286;59.274;17.974;2022-09-09T10:13:54;101818.72;;;15.76;48.44
71476;BME280;59286;59.274;17.974;2022-09-09T10:16:47;101846.34;;;15.70;48.07
71476;BME280;59286;59.274;17.974;2022-09-09T10:19:37;101833.94;;;15.57;47.70
71476;BME280;59286;59.274;17.974;2022-09-09T10:30:31;101829.03;;;15.50;46.42
71476;BME280;59286;59.274;17.974;2022-09-09T10:33:10;101821.38;;;15.35;47.41
71476;BME280;59286;59.274;17.974;2022-09-09T10:35:57;101841.25;;;15.46;48.45
71476;BME280;59286;59.274;17.974;2022-09-09T10:38:50;101819.72;;;15.25;47.15
71476;BME280;59286;59.274;17.974;2022-09-09T10:41:26;101841.16;;;15.37;48.54
71476;BME280;59286;59.274;17.974;2022-09-09T10:44:12;101840.66;;;15.35;48.54
71476;BME280;59286;59.274;17.974;2022-09-09T10:46:56;101847.03;;;15.48;49.33
71476;BME280;59286;59.274;17.974;2022-09-09T10:52:51;101797.72;;;15.30;48.42
71476;BME280;59286;59.274;17.974;2022-09-09T10:55:22;101796.84;;;15.34;47.94
71476;BME280;59286;59.274;17.974;2022-09-09T10:57:52;101781.59;;;15.18;48.05
71476;BME280;59286;59.274;17.974;2022-09-09T11:00:21;101815.84;;;15.36;48.78
71476;BME280;59286;59.274;17.974;2022-09-09T11:02:58;101799.00;;;15.32;49.02
71476;BME280;59286;59.274;17.974;2022-09-09T11:05:30;101802.53;;;15.41;49.24
71476;BME280;59286;59.274;17.974;2022-09-09T11:08:06;101789.50;;;15.31;49.54
71476;BME280;59286;59.274;17.974;2022-09-09T11:13:11;101829.31;;;15.62;49.14
71476;BME280;59286;59.274;17.974;2022-09-09T11:15:44;101828.88;;;15.69;48.25
71476;BME280;59286;59.274;17.974;2022-09-09T11:18:17;101820.72;;;15.57;48.88
71476;BME280;59286;59.274;17.974;2022-09-09T11:20:46;101792.34;;;15.48;48.49
71476;BME280;59286;59.274;17.974;2022-09-09T11:23:17;101799.97;;;15.36;49.04
71476;BME280;59286;59.274;17.974;2022-09-09T11:25:55;101805.03;;;15.33;49.71
71476;BME280;59286;59.274;17.974;2022-09-09T11:31:04;101814.25;;;15.63;50.19
71476;BME280;59286;59.274;17.974;2022-09-09T11:41:45;101784.88;;;15.37;50.00
71476;BME280;59286;59.274;17.974;2022-09-09T11:44:29;101792.22;;;15.53;48.63
71476;BME280;59286;59.274;17.974;2022-09-09T11:46:55;101768.66;;;15.43;49.33
71476;BME280;59286;59.274;17.974;2022-09-09T11:49:43;101774.63;;;15.35;49.43
71476;BME280;59286;59.274;17.974;2022-09-09T11:52:23;101797.41;;;15.59;50.00
71476;BME280;59286;59.274;17.974;2022-09-09T11:54:51;101777.75;;;15.37;49.88
71476;BME280;59286;59.274;17.974;2022-09-09T11:57:35;101758.28;;;15.33;50.74
71476;BME280;59286;59.274;17.974;2022-09-09T12:00:02;101813.44;;;15.62;50.65
71476;BME280;59286;59.274;17.974;2022-09-09T12:02:28;101777.44;;;15.52;50.82
71476;BME280;59286;59.274;17.974;2022-09-09T12:05:13;101787.41;;;15.56;50.13
71476;BME280;59286;59.274;17.974;2022-09-09T12:07:45;101795.34;;;15.56;50.79
71476;BME280;59286;59.274;17.974;2022-09-09T12:12:46;101795.13;;;15.66;51.81
71476;BME280;59286;59.274;17.974;2022-09-09T12:20:23;101760.16;;;15.69;50.90
71476;BME280;59286;59.274;17.974;2022-09-09T12:31:25;101798.84;;;15.65;51.17
71476;BME280;59286;59.274;17.974;2022-09-09T12:33:53;101770.81;;;15.41;51.21
71476;BME280;59286;59.274;17.974;2022-09-09T12:36:23;101781.88;;;15.30;51.33
71476;BME280;59286;59.274;17.974;2022-09-09T12:38:49;101769.09;;;15.23;52.04
71476;BME280;59286;59.274;17.974;2022-09-09T12:41:25;101785.88;;;15.41;51.62
71476;BME280;59286;59.274;17.974;2022-09-09T12:43:51;101781.28;;;15.46;52.26
71476;BME280;59286;59.274;17.974;2022-09-09T12:46:26;101782.94;;;15.42;51.28
71476;BME280;59286;59.274;17.974;2022-09-09T12:48:55;101777.16;;;15.40;51.78
71476;BME280;59286;59.274;17.974;2022-09-09T12:51:28;101801.72;;;15.55;51.57
71476;BME280;59286;59.274;17.974;2022-09-09T12:53:54;101782.34;;;15.32;51.82
71476;BME280;59286;59.274;17.974;2022-09-09T12:56:23;101772.59;;;15.32;51.29
71476;BME280;59286;59.274;17.974;2022-09-09T12:58:52;101754.84;;;15.33;51.28
71476;BME280;59286;59.274;17.974;2022-09-09T13:01:28;101759.25;;;15.37;51.22
71476;BME280;59286;59.274;17.974;2022-09-09T13:03:55;101758.09;;;15.43;51.37
71476;BME280;59286;59.274;17.974;2022-09-09T13:06:29;101752.41;;;15.36;51.92
71476;BME280;59286;59.274;17.974;2022-09-09T13:08:57;101751.44;;;15.32;51.56
71476;BME280;59286;59.274;17.974;2022-09-09T13:11:34;101765.91;;;15.35;51.80
71476;BME280;59286;59.274;17.974;2022-09-09T13:14:02;101739.34;;;15.18;52.24
71476;BME280;59286;59.274;17.974;2022-09-09T13:19:14;101781.56;;;15.31;52.47
71476;BME280;59286;59.274;17.974;2022-09-09T13:21:40;101779.84;;;15.13;52.60
71476;BME280;59286;59.274;17.974;2022-09-09T13:24:19;101748.06;;;14.91;52.34
71476;BME280;59286;59.274;17.974;2022-09-09T13:26:57;101757.06;;;15.04;53.06
71476;BME280;59286;59.274;17.974;2022-09-09T13:29:23;101778.97;;;15.18;53.38
71476;BME280;59286;59.274;17.974;2022-09-09T13:31:48;101775.91;;;15.11;52.91
71476;BME280;59286;59.274;17.974;2022-09-09T13:34:30;101738.56;;;14.90;53.24
71476;BME280;59286;59.274;17.974;2022-09-09T13:37:02;101770.75;;;15.19;53.37
71476;BME280;59286;59.274;17.974;2022-09-09T13:39:28;101774.38;;;15.23;53.45
71476;BME280;59286;59.274;17.974;2022-09-09T13:41:54;101743.06;;;15.03;52.91
71476;BME280;59286;59.274;17.974;2022-09-09T13:44:30;101730.09;;;14.93;52.24
71476;BME280;59286;59.274;17.974;2022-09-09T13:47:21;101744.84;;;14.94;52.74
71476;BME280;59286;59.274;17.974;2022-09-09T13:49:48;101732.44;;;14.81;53.10
71476;BME280;59286;59.274;17.974;2022-09-09T13:52:18;101764.19;;;15.03;52.97
71476;BME280;59286;59.274;17.974;2022-09-09T13:54:52;101743.47;;;14.83;53.69
71476;BME280;59286;59.274;17.974;2022-09-09T13:57:26;101763.25;;;14.86;53.75
71476;BME280;59286;59.274;17.974;2022-09-09T13:59:54;101721.88;;;14.54;53.24
71476;BME280;59286;59.274;17.974;2022-09-09T14:02:20;101731.53;;;14.58;53.28
71476;BME280;59286;59.274;17.974;2022-09-09T14:04:46;101773.69;;;14.77;53.33
71476;BME280;59286;59.274;17.974;2022-09-09T14:07:14;101759.72;;;14.77;53.25
71476;BME280;59286;59.274;17.974;2022-09-09T14:09:40;101750.31;;;14.71;53.38
71476;BME280;59286;59.274;17.974;2022-09-09T14:12:13;101729.00;;;14.53;53.53
71476;BME280;59286;59.274;17.974;2022-09-09T14:14:40;101767.03;;;14.80;53.95
71476;BME280;59286;59.274;17.974;2022-09-09T14:17:07;101754.91;;;14.65;54.02
71476;BME280;59286;59.274;17.974;2022-09-09T14:19:33;101729.97;;;14.44;53.62
71476;BME280;59286;59.274;17.974;2022-09-09T14:21:58;101719.31;;;14.35;53.76
71476;BME280;59286;59.274;17.974;2022-09-09T14:24:24;101742.09;;;14.45;54.35
71476;BME280;59286;59.274;17.974;2022-09-09T14:26:50;101754.59;;;14.53;54.46
71476;BME280;59286;59.274;17.974;2022-09-09T14:29:16;101762.34;;;14.63;54.61
71476;BME280;59286;59.274;17.974;2022-09-09T14:31:41;101757.25;;;14.67;54.66
71476;BME280;59286;59.274;17.974;2022-09-09T14:34:07;101739.25;;;14.55;53.98
71476;BME280;59286;59.274;17.974;2022-09-09T14:36:33;101756.41;;;14.71;54.00
71476;BME280;59286;59.274;17.974;2022-09-09T14:38:58;101753.47;;;14.73;53.31
71476;BME280;59286;59.274;17.974;2022-09-09T14:41:24;101728.22;;;14.53;52.76
71476;BME280;59286;59.274;17.974;2022-09-09T14:43:50;101718.25;;;14.50;53.29
71476;BME280;59286;59.274;17.974;2022-09-09T14:46:19;101743.97;;;14.72;53.37
71476;BME280;59286;59.274;17.974;2022-09-09T14:48:44;101720.22;;;14.58;53.38